sensor_id;sensor_type;location;lat;lon;timestamp;temperature;humidity
25716;DHT22;13573;50.936;4.328;2022-10-23T00:01:12;16.40;99.90
25716;DHT22;13573;50.936;4.328;2022-10-23T00:03:38;16.10;99.90
25716;DHT22;13573;50.936;4.328;2022-10-23T00:06:06;16.30;99.90
25716;DHT22;13573;50.936;4.328;2022-10-23T00:08:33;16.10;99.90
25716;DHT22;13573;50.936;4.328;2022-10-23T00:10:59;16.40;99.90
25716;DHT22;13573;50.936;4.328;2022-10-23T00:15:53;16.80;99.90
25716;DHT22;13573;50.936;4.328;2022-10-23T00:18:20;16.50;99.90
25716;DHT22;13573;50.936;4.328;2022-10-23T00:20:47;16.40;99.90
25716;DHT22;13573;50.936;4.328;2022-10-23T00:23:15;16.80;99.90
25716;DHT22;13573;50.936;4.328;2022-10-23T00:25:41;17.30;99.90
25716;DHT22;13573;50.936;4.328;2022-10-23T00:28:09;16.70;99.90
25716;DHT22;13573;50.936;4.328;2022-10-23T00:30:35;16.40;99.90
25716;DHT22;13573;50.936;4.328;2022-10-23T00:33:02;16.60;99.90
25716;DHT22;13573;50.936;4.328;2022-10-23T00:35:28;15.80;99.90
25716;DHT22;13573;50.936;4.328;2022-10-23T00:37:55;16.50;99.90
25716;DHT22;13573;50.936;4.328;2022-10-23T00:40:22;16.40;99.90
25716;DHT22;13573;50.936;4.328;2022-10-23T00:42:48;16.30;99.90
25716;DHT22;13573;50.936;4.328;2022-10-23T00:45:20;15.50;99.90
25716;DHT22;13573;50.936;4.328;2022-10-23T00:47:47;15.70;99.90
25716;DHT22;13573;50.936;4.328;2022-10-23T00:50:14;15.20;99.90
25716;DHT22;13573;50.936;4.328;2022-10-23T00:52:45;15.60;99.90
25716;DHT22;13573;50.936;4.328;2022-10-23T00:55:17;15.10;99.90
25716;DHT22;13573;50.936;4.328;2022-10-23T00:57:43;15.60;99.90
25716;DHT22;13573;50.936;4.328;2022-10-23T01:00:17;15.30;99.90
25716;DHT22;13573;50.936;4.328;2022-10-23T01:02:44;15.00;99.90
25716;DHT22;13573;50.936;4.328;2022-10-23T01:05:10;15.30;99.90
25716;DHT22;13573;50.936;4.328;2022-10-23T01:08:19;15.10;99.90
25716;DHT22;13573;50.936;4.328;2022-10-23T01:10:35;15.60;99.90
25716;DHT22;13573;50.936;4.328;2022-10-23T01:13:07;14.10;99.90
25716;DHT22;13573;50.936;4.328;2022-10-23T01:15:43;16.30;99.90
25716;DHT22;13573;50.936;4.328;2022-10-23T01:18:20;15.40;99.90
25716;DHT22;13573;50.936;4.328;2022-10-23T01:21:07;15.20;99.90
25716;DHT22;13573;50.936;4.328;2022-10-23T01:23:41;15.50;99.90
25716;DHT22;13573;50.936;4.328;2022-10-23T01:26:24;14.30;99.90
25716;DHT22;13573;50.936;4.328;2022-10-23T01:29:00;15.40;99.90
25716;DHT22;13573;50.936;4.328;2022-10-23T01:31:34;15.20;99.90
25716;DHT22;13573;50.936;4.328;2022-10-23T01:34:08;14.90;99.90
25716;DHT22;13573;50.936;4.328;2022-10-23T01:36:37;15.30;99.90
25716;DHT22;13573;50.936;4.328;2022-10-23T01:41:40;15.40;99.90
25716;DHT22;13573;50.936;4.328;2022-10-23T01:44:21;15.00;99.90
25716;DHT22;13573;50.936;4.328;2022-10-23T01:46:48;15.00;99.90
25716;DHT22;13573;50.936;4.328;2022-10-23T01:49:16;14.60;99.90
25716;DHT22;13573;50.936;4.328;2022-10-23T01:51:49;15.20;99.90
25716;DHT22;13573;50.936;4.328;2022-10-23T01:54:18;14.70;99.90
25716;DHT22;13573;50.936;4.328;2022-10-23T01:56:48;15.10;99.90
25716;DHT22;13573;50.936;4.328;2022-10-23T01:59:20;14.90;99.90
25716;DHT22;13573;50.936;4.328;2022-10-23T02:01:49;15.10;99.90
25716;DHT22;13573;50.936;4.328;2022-10-23T02:04:22;15.20;99.90
25716;DHT22;13573;50.936;4.328;2022-10-23T02:06:49;15.00;99.90
25716;DHT22;13573;50.936;4.328;2022-10-23T02:09:16;14.80;99.90
25716;DHT22;13573;50.936;4.328;2022-10-23T02:11:50;14.80;99.90
25716;DHT22;13573;50.936;4.328;2022-10-23T02:14:36;14.90;99.90
25716;DHT22;13573;50.936;4.328;2022-10-23T02:17:08;15.00;99.90
25716;DHT22;13573;50.936;4.328;2022-10-23T02:19:48;15.50;99.90
25716;DHT22;13573;50.936;4.328;2022-10-23T02:22:35;15.30;99.90
25716;DHT22;13573;50.936;4.328;2022-10-23T02:27:36;15.70;99.90
25716;DHT22;13573;50.936;4.328;2022-10-23T02:30:07;15.70;99.90
25716;DHT22;13573;50.936;4.328;2022-10-23T02:32:35;15.10;99.90
25716;DHT22;13573;50.936;4.328;2022-10-23T02:35:04;15.70;99.90
25716;DHT22;13573;50.936;4.328;2022-10-23T02:37:30;14.80;99.90
25716;DHT22;13573;50.936;4.328;2022-10-23T02:39:59;16.70;99.90
25716;DHT22;13573;50.936;4.328;2022-10-23T02:45:05;16.00;99.90
25716;DHT22;13573;50.936;4.328;2022-10-23T02:53:25;15.60;99.90
25716;DHT22;13573;50.936;4.328;2022-10-23T02:58:40;15.70;99.90
25716;DHT22;13573;50.936;4.328;2022-10-23T03:01:10;15.60;99.90
25716;DHT22;13573;50.936;4.328;2022-10-23T03:03:44;15.90;99.90
25716;DHT22;13573;50.936;4.328;2022-10-23T03:08:43;15.10;99.90
25716;DHT22;13573;50.936;4.328;2022-10-23T03:11:11;15.60;99.90
25716;DHT22;13573;50.936;4.328;2022-10-23T03:13:38;16.00;99.90
25716;DHT22;13573;50.936;4.328;2022-10-23T03:16:04;15.80;99.90
25716;DHT22;13573;50.936;4.328;2022-10-23T03:18:31;15.30;99.90
25716;DHT22;13573;50.936;4.328;2022-10-23T03:20:58;15.60;99.90
25716;DHT22;13573;50.936;4.328;2022-10-23T03:25:52;15.30;99.90
25716;DHT22;13573;50.936;4.328;2022-10-23T03:28:19;15.70;99.90
25716;DHT22;13573;50.936;4.328;2022-10-23T03:30:45;15.60;99.90
25716;DHT22;13573;50.936;4.328;2022-10-23T03:33:12;16.30;99.90
25716;DHT22;13573;50.936;4.328;2022-10-23T03:35:39;15.40;99.90
25716;DHT22;13573;50.936;4.328;2022-10-23T03:38:07;15.30;99.90
25716;DHT22;13573;50.936;4.328;2022-10-23T03:43:00;15.40;99.90
25716;DHT22;13573;50.936;4.328;2022-10-23T03:45:27;15.50;99.90
25716;DHT22;13573;50.936;4.328;2022-10-23T03:47:53;15.50;99.90
25716;DHT22;13573;50.936;4.328;2022-10-23T03:50:20;15.40;99.90
25716;DHT22;13573;50.936;4.328;2022-10-23T03:52:47;16.80;99.90
25716;DHT22;13573;50.936;4.328;2022-10-23T03:57:40;15.30;99.90
25716;DHT22;13573;50.936;4.328;2022-10-23T04:00:07;15.30;99.90
25716;DHT22;13573;50.936;4.328;2022-10-23T04:02:34;15.30;99.90
25716;DHT22;13573;50.936;4.328;2022-10-23T04:07:27;15.60;99.90
25716;DHT22;13573;50.936;4.328;2022-10-23T04:09:54;16.20;99.90
25716;DHT22;13573;50.936;4.328;2022-10-23T04:12:21;16.10;99.90
25716;DHT22;13573;50.936;4.328;2022-10-23T04:14:47;15.60;99.90
25716;DHT22;13573;50.936;4.328;2022-10-23T04:17:14;15.70;99.90
25716;DHT22;13573;50.936;4.328;2022-10-23T04:19:41;15.10;99.90
25716;DHT22;13573;50.936;4.328;2022-10-23T04:24:34;16.70;99.90
25716;DHT22;13573;50.936;4.328;2022-10-23T04:27:00;14.80;99.90
25716;DHT22;13573;50.936;4.328;2022-10-23T04:29:27;15.90;99.90
25716;DHT22;13573;50.936;4.328;2022-10-23T04:31:56;15.90;99.90
25716;DHT22;13573;50.936;4.328;2022-10-23T04:34:22;16.10;99.90
25716;DHT22;13573;50.936;4.328;2022-10-23T04:36:49;15.80;99.90
25716;DHT22;13573;50.936;4.328;2022-10-23T04:39:16;16.20;99.90
25716;DHT22;13573;50.936;4.328;2022-10-23T04:41:42;15.90;99.90
25716;DHT22;13573;50.936;4.328;2022-10-23T04:44:09;16.00;99.90
25716;DHT22;13573;50.936;4.328;2022-10-23T04:46:36;15.90;99.90
25716;DHT22;13573;50.936;4.328;2022-10-23T04:49:02;17.20;99.90
25716;DHT22;13573;50.936;4.328;2022-10-23T04:51:29;16.40;99.90
25716;DHT22;13573;50.936;4.328;2022-10-23T04:53:56;16.30;99.90
25716;DHT22;13573;50.936;4.328;2022-10-23T04:56:22;16.10;99.90
25716;DHT22;13573;50.936;4.328;2022-10-23T04:58:49;17.00;99.90
25716;DHT22;13573;50.936;4.328;2022-10-23T05:01:17;15.20;99.90
25716;DHT22;13573;50.936;4.328;2022-10-23T05:03:44;16.00;99.90
25716;DHT22;13573;50.936;4.328;2022-10-23T05:06:10;15.50;99.90
25716;DHT22;13573;50.936;4.328;2022-10-23T05:08:37;14.70;99.90
25716;DHT22;13573;50.936;4.328;2022-10-23T05:11:04;16.00;99.90
25716;DHT22;13573;50.936;4.328;2022-10-23T05:13:31;15.20;99.90
25716;DHT22;13573;50.936;4.328;2022-10-23T05:15:58;16.50;99.90
25716;DHT22;13573;50.936;4.328;2022-10-23T05:21:02;14.70;99.90
25716;DHT22;13573;50.936;4.328;2022-10-23T05:23:32;15.90;99.90
25716;DHT22;13573;50.936;4.328;2022-10-23T05:25:59;16.00;99.90
25716;DHT22;13573;50.936;4.328;2022-10-23T05:28:29;16.10;99.90
25716;DHT22;13573;50.936;4.328;2022-10-23T05:33:25;16.00;99.90
25716;DHT22;13573;50.936;4.328;2022-10-23T05:35:52;16.10;99.90
25716;DHT22;13573;50.936;4.328;2022-10-23T05:38:19;16.10;99.90
25716;DHT22;13573;50.936;4.328;2022-10-23T05:40:46;15.60;99.90
25716;DHT22;13573;50.936;4.328;2022-10-23T05:43:12;16.30;99.90
25716;DHT22;13573;50.936;4.328;2022-10-23T05:48:06;15.80;99.90
25716;DHT22;13573;50.936;4.328;2022-10-23T05:50:36;16.00;99.90
25716;DHT22;13573;50.936;4.328;2022-10-23T05:57:56;16.00;99.90
25716;DHT22;13573;50.936;4.328;2022-10-23T06:00:22;16.10;99.90
25716;DHT22;13573;50.936;4.328;2022-10-23T06:05:16;16.20;99.90
25716;DHT22;13573;50.936;4.328;2022-10-23T06:07:42;15.80;99.90
25716;DHT22;13573;50.936;4.328;2022-10-23T06:10:09;17.00;99.90
25716;DHT22;13573;50.936;4.328;2022-10-23T06:15:04;15.60;99.90
25716;DHT22;13573;50.936;4.328;2022-10-23T06:17:31;16.20;99.90
25716;DHT22;13573;50.936;4.328;2022-10-23T06:19:57;15.70;99.90
25716;DHT22;13573;50.936;4.328;2022-10-23T06:22:27;15.60;99.90
25716;DHT22;13573;50.936;4.328;2022-10-23T06:24:54;15.00;99.90
25716;DHT22;13573;50.936;4.328;2022-10-23T06:27:21;15.40;99.90
25716;DHT22;13573;50.936;4.328;2022-10-23T06:29:48;15.50;99.90
25716;DHT22;13573;50.936;4.328;2022-10-23T06:34:41;15.60;99.90
25716;DHT22;13573;50.936;4.328;2022-10-23T06:39:35;17.70;99.90
25716;DHT22;13573;50.936;4.328;2022-10-23T06:42:02;16.10;99.90
25716;DHT22;13573;50.936;4.328;2022-10-23T06:44:29;15.90;99.90
25716;DHT22;13573;50.936;4.328;2022-10-23T06:46:55;15.90;99.90
25716;DHT22;13573;50.936;4.328;2022-10-23T06:49:22;16.20;99.90
25716;DHT22;13573;50.936;4.328;2022-10-23T06:51:49;15.80;99.90
25716;DHT22;13573;50.936;4.328;2022-10-23T06:54:15;16.00;99.90
25716;DHT22;13573;50.936;4.328;2022-10-23T06:59:09;15.80;99.90
25716;DHT22;13573;50.936;4.328;2022-10-23T07:01:36;16.20;99.90
25716;DHT22;13573;50.936;4.328;2022-10-23T07:04:03;16.40;99.90
25716;DHT22;13573;50.936;4.328;2022-10-23T07:06:29;16.20;99.90
25716;DHT22;13573;50.936;4.328;2022-10-23T07:08:56;16.60;99.90
25716;DHT22;13573;50.936;4.328;2022-10-23T07:11:22;16.60;99.90
25716;DHT22;13573;50.936;4.328;2022-10-23T07:13:49;16.50;99.90
25716;DHT22;13573;50.936;4.328;2022-10-23T07:16:19;16.20;99.90
25716;DHT22;13573;50.936;4.328;2022-10-23T07:18:47;18.00;99.90
25716;DHT22;13573;50.936;4.328;2022-10-23T07:23:41;16.40;99.90
25716;DHT22;13573;50.936;4.328;2022-10-23T07:26:10;16.80;99.90
25716;DHT22;13573;50.936;4.328;2022-10-23T07:28:41;16.80;99.90
25716;DHT22;13573;50.936;4.328;2022-10-23T07:31:08;16.70;99.90
25716;DHT22;13573;50.936;4.328;2022-10-23T07:33:35;16.80;99.90
25716;DHT22;13573;50.936;4.328;2022-10-23T07:36:05;16.50;99.90
25716;DHT22;13573;50.936;4.328;2022-10-23T07:38:32;16.80;99.90
25716;DHT22;13573;50.936;4.328;2022-10-23T07:40:59;17.00;99.90
25716;DHT22;13573;50.936;4.328;2022-10-23T07:43:26;16.50;99.90
25716;DHT22;13573;50.936;4.328;2022-10-23T07:45:53;16.80;99.90
25716;DHT22;13573;50.936;4.328;2022-10-23T07:48:20;17.20;99.90
25716;DHT22;13573;50.936;4.328;2022-10-23T07:50:49;17.50;99.90
25716;DHT22;13573;50.936;4.328;2022-10-23T07:53:19;17.40;99.90
25716;DHT22;13573;50.936;4.328;2022-10-23T08:00:46;17.50;99.90
25716;DHT22;13573;50.936;4.328;2022-10-23T08:08:08;18.70;99.90
25716;DHT22;13573;50.936;4.328;2022-10-23T08:10:35;16.90;99.90
25716;DHT22;13573;50.936;4.328;2022-10-23T08:13:02;16.90;99.90
25716;DHT22;13573;50.936;4.328;2022-10-23T08:15:28;17.20;99.90
25716;DHT22;13573;50.936;4.328;2022-10-23T08:17:55;17.50;99.90
25716;DHT22;13573;50.936;4.328;2022-10-23T08:20:21;16.60;99.90
25716;DHT22;13573;50.936;4.328;2022-10-23T08:22:50;16.80;99.90
25716;DHT22;13573;50.936;4.328;2022-10-23T08:25:18;17.60;99.90
25716;DHT22;13573;50.936;4.328;2022-10-23T08:27:45;17.10;99.90
25716;DHT22;13573;50.936;4.328;2022-10-23T08:30:11;17.60;99.90
25716;DHT22;13573;50.936;4.328;2022-10-23T08:32:38;17.60;99.90
25716;DHT22;13573;50.936;4.328;2022-10-23T08:35:05;17.50;99.90
25716;DHT22;13573;50.936;4.328;2022-10-23T08:37:32;17.80;99.90
25716;DHT22;13573;50.936;4.328;2022-10-23T08:42:26;17.40;99.90
25716;DHT22;13573;50.936;4.328;2022-10-23T08:45:00;17.70;99.90
25716;DHT22;13573;50.936;4.328;2022-10-23T08:47:38;17.50;99.90
25716;DHT22;13573;50.936;4.328;2022-10-23T08:50:11;17.20;99.90
25716;DHT22;13573;50.936;4.328;2022-10-23T08:55:24;17.20;99.90
25716;DHT22;13573;50.936;4.328;2022-10-23T08:58:02;17.50;99.90
25716;DHT22;13573;50.936;4.328;2022-10-23T09:00:29;17.20;99.90
25716;DHT22;13573;50.936;4.328;2022-10-23T09:02:55;17.80;99.90
25716;DHT22;13573;50.936;4.328;2022-10-23T09:11:10;17.60;99.90
25716;DHT22;13573;50.936;4.328;2022-10-23T09:18:49;17.80;99.90
25716;DHT22;13573;50.936;4.328;2022-10-23T09:21:15;17.00;99.90
25716;DHT22;13573;50.936;4.328;2022-10-23T09:23:42;17.80;99.90
25716;DHT22;13573;50.936;4.328;2022-10-23T09:26:14;17.60;99.90
25716;DHT22;13573;50.936;4.328;2022-10-23T09:36:18;18.00;99.90
25716;DHT22;13573;50.936;4.328;2022-10-23T09:38:49;18.10;99.90
25716;DHT22;13573;50.936;4.328;2022-10-23T09:41:19;17.80;99.90
25716;DHT22;13573;50.936;4.328;2022-10-23T09:46:21;17.90;99.90
25716;DHT22;13573;50.936;4.328;2022-10-23T09:48:56;18.10;99.90
25716;DHT22;13573;50.936;4.328;2022-10-23T09:51:24;18.80;99.90
25716;DHT22;13573;50.936;4.328;2022-10-23T09:53:53;18.70;99.90
25716;DHT22;13573;50.936;4.328;2022-10-23T09:59:00;18.80;99.90
25716;DHT22;13573;50.936;4.328;2022-10-23T10:01:30;19.40;99.90
25716;DHT22;13573;50.936;4.328;2022-10-23T10:03:58;18.80;99.90
25716;DHT22;13573;50.936;4.328;2022-10-23T10:06:27;17.70;99.90
25716;DHT22;13573;50.936;4.328;2022-10-23T10:08:57;18.80;99.90
25716;DHT22;13573;50.936;4.328;2022-10-23T10:11:34;18.80;99.90
25716;DHT22;13573;50.936;4.328;2022-10-23T10:14:41;19.00;99.90
25716;DHT22;13573;50.936;4.328;2022-10-23T10:19:32;17.90;99.90
25716;DHT22;13573;50.936;4.328;2022-10-23T10:22:02;19.00;99.90
25716;DHT22;13573;50.936;4.328;2022-10-23T10:24:35;18.50;99.90
25716;DHT22;13573;50.936;4.328;2022-10-23T10:27:08;19.50;99.90
25716;DHT22;13573;50.936;4.328;2022-10-23T10:30:23;19.50;99.90
25716;DHT22;13573;50.936;4.328;2022-10-23T10:35:15;19.20;99.90
25716;DHT22;13573;50.936;4.328;2022-10-23T10:40:24;19.00;99.90
25716;DHT22;13573;50.936;4.328;2022-10-23T10:43:05;18.40;99.90
25716;DHT22;13573;50.936;4.328;2022-10-23T10:45:33;19.80;99.90
25716;DHT22;13573;50.936;4.328;2022-10-23T10:48:17;19.30;99.90
25716;DHT22;13573;50.936;4.328;2022-10-23T10:53:42;19.70;99.90
25716;DHT22;13573;50.936;4.328;2022-10-23T10:56:10;18.50;99.90
25716;DHT22;13573;50.936;4.328;2022-10-23T10:58:42;20.00;99.90
25716;DHT22;13573;50.936;4.328;2022-10-23T11:01:36;18.30;99.90
25716;DHT22;13573;50.936;4.328;2022-10-23T11:06:34;18.00;99.90
25716;DHT22;13573;50.936;4.328;2022-10-23T11:09:09;19.70;99.90
25716;DHT22;13573;50.936;4.328;2022-10-23T11:11:35;19.30;99.90
25716;DHT22;13573;50.936;4.328;2022-10-23T11:14:02;19.90;99.90
25716;DHT22;13573;50.936;4.328;2022-10-23T11:16:33;20.00;99.90
25716;DHT22;13573;50.936;4.328;2022-10-23T11:19:13;20.20;99.90
25716;DHT22;13573;50.936;4.328;2022-10-23T11:21:42;19.40;99.90
25716;DHT22;13573;50.936;4.328;2022-10-23T11:26:53;19.50;99.90
25716;DHT22;13573;50.936;4.328;2022-10-23T11:29:42;20.20;99.90
25716;DHT22;13573;50.936;4.328;2022-10-23T11:35:11;19.40;99.90
25716;DHT22;13573;50.936;4.328;2022-10-23T11:37:36;20.60;99.90
25716;DHT22;13573;50.936;4.328;2022-10-23T11:40:17;20.70;99.90
25716;DHT22;13573;50.936;4.328;2022-10-23T11:42:47;20.80;99.90
25716;DHT22;13573;50.936;4.328;2022-10-23T11:45:25;21.20;99.90
25716;DHT22;13573;50.936;4.328;2022-10-23T11:47:57;20.70;99.90
25716;DHT22;13573;50.936;4.328;2022-10-23T11:50:31;21.30;99.90
25716;DHT22;13573;50.936;4.328;2022-10-23T11:58:12;20.70;99.90
25716;DHT22;13573;50.936;4.328;2022-10-23T12:00:48;20.00;99.90
25716;DHT22;13573;50.936;4.328;2022-10-23T12:03:15;21.50;99.90
25716;DHT22;13573;50.936;4.328;2022-10-23T12:05:41;21.20;99.90
25716;DHT22;13573;50.936;4.328;2022-10-23T12:08:19;21.10;99.90
25716;DHT22;13573;50.936;4.328;2022-10-23T12:10:47;21.10;99.90
25716;DHT22;13573;50.936;4.328;2022-10-23T12:13:30;21.30;99.90
25716;DHT22;13573;50.936;4.328;2022-10-23T12:15:57;21.10;99.90
25716;DHT22;13573;50.936;4.328;2022-10-23T12:18:24;19.80;99.90
25716;DHT22;13573;50.936;4.328;2022-10-23T12:20:57;21.40;99.90
25716;DHT22;13573;50.936;4.328;2022-10-23T12:24:33;22.20;99.90
25716;DHT22;13573;50.936;4.328;2022-10-23T12:26:18;21.10;99.90
25716;DHT22;13573;50.936;4.328;2022-10-23T12:33:58;21.50;99.90
25716;DHT22;13573;50.936;4.328;2022-10-23T12:36:42;20.00;99.90
25716;DHT22;13573;50.936;4.328;2022-10-23T12:41:47;21.80;99.90
25716;DHT22;13573;50.936;4.328;2022-10-23T12:44:14;21.90;99.90
25716;DHT22;13573;50.936;4.328;2022-10-23T12:46:45;21.70;99.90
25716;DHT22;13573;50.936;4.328;2022-10-23T12:49:16;21.90;99.90
25716;DHT22;13573;50.936;4.328;2022-10-23T12:51:43;22.50;99.90
25716;DHT22;13573;50.936;4.328;2022-10-23T12:54:16;22.40;99.90
25716;DHT22;13573;50.936;4.328;2022-10-23T12:56:44;21.30;99.90
25716;DHT22;13573;50.936;4.328;2022-10-23T12:59:17;23.00;99.90
25716;DHT22;13573;50.936;4.328;2022-10-23T13:01:45;22.70;99.90
25716;DHT22;13573;50.936;4.328;2022-10-23T13:04:18;22.80;99.90
25716;DHT22;13573;50.936;4.328;2022-10-23T13:09:16;21.40;99.90
25716;DHT22;13573;50.936;4.328;2022-10-23T13:14:12;23.30;99.90
25716;DHT22;13573;50.936;4.328;2022-10-23T13:16:39;21.60;99.90
25716;DHT22;13573;50.936;4.328;2022-10-23T13:19:05;22.80;99.90
25716;DHT22;13573;50.936;4.328;2022-10-23T13:21:32;22.60;99.90
25716;DHT22;13573;50.936;4.328;2022-10-23T13:23:59;21.70;99.90
25716;DHT22;13573;50.936;4.328;2022-10-23T13:26:32;21.50;99.90
25716;DHT22;13573;50.936;4.328;2022-10-23T13:29:00;22.30;99.90
25716;DHT22;13573;50.936;4.328;2022-10-23T13:31:32;20.90;99.90
25716;DHT22;13573;50.936;4.328;2022-10-23T13:36:34;21.20;99.90
25716;DHT22;13573;50.936;4.328;2022-10-23T13:39:09;21.70;99.90
25716;DHT22;13573;50.936;4.328;2022-10-23T13:41:39;21.50;99.90
25716;DHT22;13573;50.936;4.328;2022-10-23T13:44:08;21.40;99.90
25716;DHT22;13573;50.936;4.328;2022-10-23T13:46:35;21.80;99.90
25716;DHT22;13573;50.936;4.328;2022-10-23T13:51:39;21.70;99.90
25716;DHT22;13573;50.936;4.328;2022-10-23T13:53:58;21.50;99.90
25716;DHT22;13573;50.936;4.328;2022-10-23T13:56:26;20.50;99.90
25716;DHT22;13573;50.936;4.328;2022-10-23T13:58:53;21.70;99.90
25716;DHT22;13573;50.936;4.328;2022-10-23T14:06:17;21.50;99.90
25716;DHT22;13573;50.936;4.328;2022-10-23T14:08:44;21.60;99.90
25716;DHT22;13573;50.936;4.328;2022-10-23T14:11:13;21.50;99.90
25716;DHT22;13573;50.936;4.328;2022-10-23T14:13:40;20.20;99.90
25716;DHT22;13573;50.936;4.328;2022-10-23T14:16:08;21.60;99.90
25716;DHT22;13573;50.936;4.328;2022-10-23T14:18:36;20.60;99.90
25716;DHT22;13573;50.936;4.328;2022-10-23T14:21:05;22.00;99.90
25716;DHT22;13573;50.936;4.328;2022-10-23T14:26:02;21.80;99.90
25716;DHT22;13573;50.936;4.328;2022-10-23T14:28:29;21.30;99.90
25716;DHT22;13573;50.936;4.328;2022-10-23T14:30:55;22.00;99.90
25716;DHT22;13573;50.936;4.328;2022-10-23T14:33:22;22.00;99.90
25716;DHT22;13573;50.936;4.328;2022-10-23T14:35:50;20.50;99.90
25716;DHT22;13573;50.936;4.328;2022-10-23T14:38:16;20.60;99.90
25716;DHT22;13573;50.936;4.328;2022-10-23T14:40:44;22.10;99.90
25716;DHT22;13573;50.936;4.328;2022-10-23T14:43:10;21.80;99.90
25716;DHT22;13573;50.936;4.328;2022-10-23T14:48:04;21.80;99.90
25716;DHT22;13573;50.936;4.328;2022-10-23T14:50:31;21.80;99.90
25716;DHT22;13573;50.936;4.328;2022-10-23T14:52:59;21.20;99.90
25716;DHT22;13573;50.936;4.328;2022-10-23T14:55:26;20.10;99.90
25716;DHT22;13573;50.936;4.328;2022-10-23T14:57:54;20.10;99.90
25716;DHT22;13573;50.936;4.328;2022-10-23T15:00:22;21.30;99.90
25716;DHT22;13573;50.936;4.328;2022-10-23T15:02:49;20.90;99.90
25716;DHT22;13573;50.936;4.328;2022-10-23T15:05:16;21.40;99.90
25716;DHT22;13573;50.936;4.328;2022-10-23T15:07:42;20.90;99.90
25716;DHT22;13573;50.936;4.328;2022-10-23T15:10:09;21.00;99.90
25716;DHT22;13573;50.936;4.328;2022-10-23T15:15:04;20.90;99.90
25716;DHT22;13573;50.936;4.328;2022-10-23T15:17:31;20.90;99.90
25716;DHT22;13573;50.936;4.328;2022-10-23T15:20:00;21.00;99.90
25716;DHT22;13573;50.936;4.328;2022-10-23T15:22:27;20.90;99.90
25716;DHT22;13573;50.936;4.328;2022-10-23T15:24:53;20.80;99.90
25716;DHT22;13573;50.936;4.328;2022-10-23T15:27:21;20.80;99.90
25716;DHT22;13573;50.936;4.328;2022-10-23T15:32:15;21.20;99.90
25716;DHT22;13573;50.936;4.328;2022-10-23T15:34:42;20.40;99.90
25716;DHT22;13573;50.936;4.328;2022-10-23T15:37:09;20.50;99.90
25716;DHT22;13573;50.936;4.328;2022-10-23T15:39:36;20.40;99.90
25716;DHT22;13573;50.936;4.328;2022-10-23T15:42:04;19.30;99.90
25716;DHT22;13573;50.936;4.328;2022-10-23T15:44:33;20.80;99.90
25716;DHT22;13573;50.936;4.328;2022-10-23T15:46:59;20.70;99.90
25716;DHT22;13573;50.936;4.328;2022-10-23T15:49:27;20.80;99.90
25716;DHT22;13573;50.936;4.328;2022-10-23T15:51:55;20.70;99.90
25716;DHT22;13573;50.936;4.328;2022-10-23T15:54:22;21.00;99.90
25716;DHT22;13573;50.936;4.328;2022-10-23T15:56:51;20.50;99.90
25716;DHT22;13573;50.936;4.328;2022-10-23T15:59:20;20.20;99.90
25716;DHT22;13573;50.936;4.328;2022-10-23T16:01:47;20.60;99.90
25716;DHT22;13573;50.936;4.328;2022-10-23T16:04:15;20.70;99.90
25716;DHT22;13573;50.936;4.328;2022-10-23T16:06:43;20.50;99.90
25716;DHT22;13573;50.936;4.328;2022-10-23T16:09:10;20.60;99.90
25716;DHT22;13573;50.936;4.328;2022-10-23T16:11:38;20.60;99.90
25716;DHT22;13573;50.936;4.328;2022-10-23T16:14:06;19.10;99.90
25716;DHT22;13573;50.936;4.328;2022-10-23T16:19:01;20.40;99.90
25716;DHT22;13573;50.936;4.328;2022-10-23T16:21:30;20.70;99.90
25716;DHT22;13573;50.936;4.328;2022-10-23T16:28:56;20.70;99.90
25716;DHT22;13573;50.936;4.328;2022-10-23T16:31:24;20.30;99.90
25716;DHT22;13573;50.936;4.328;2022-10-23T16:33:52;20.60;99.90
25716;DHT22;13573;50.936;4.328;2022-10-23T16:36:19;20.20;99.90
25716;DHT22;13573;50.936;4.328;2022-10-23T16:38:46;20.00;99.90
25716;DHT22;13573;50.936;4.328;2022-10-23T16:41:13;20.30;99.90
25716;DHT22;13573;50.936;4.328;2022-10-23T16:43:39;18.50;99.90
25716;DHT22;13573;50.936;4.328;2022-10-23T16:46:12;20.10;99.90
25716;DHT22;13573;50.936;4.328;2022-10-23T16:48:39;18.50;99.90
25716;DHT22;13573;50.936;4.328;2022-10-23T16:51:09;20.40;99.90
25716;DHT22;13573;50.936;4.328;2022-10-23T16:53:36;20.40;99.90
25716;DHT22;13573;50.936;4.328;2022-10-23T16:56:04;20.20;99.90
25716;DHT22;13573;50.936;4.328;2022-10-23T16:58:33;19.60;99.90
25716;DHT22;13573;50.936;4.328;2022-10-23T17:01:03;20.10;99.90
25716;DHT22;13573;50.936;4.328;2022-10-23T17:03:33;19.90;99.90
25716;DHT22;13573;50.936;4.328;2022-10-23T17:06:01;19.80;99.90
25716;DHT22;13573;50.936;4.328;2022-10-23T17:08:28;20.40;99.90
25716;DHT22;13573;50.936;4.328;2022-10-23T17:11:04;19.60;99.90
25716;DHT22;13573;50.936;4.328;2022-10-23T17:13:32;19.80;99.90
25716;DHT22;13573;50.936;4.328;2022-10-23T17:16:04;20.00;99.90
25716;DHT22;13573;50.936;4.328;2022-10-23T17:18:32;19.70;99.90
25716;DHT22;13573;50.936;4.328;2022-10-23T17:20:59;20.20;99.90
25716;DHT22;13573;50.936;4.328;2022-10-23T17:23:27;19.90;99.90
25716;DHT22;13573;50.936;4.328;2022-10-23T17:25:54;19.50;99.90
25716;DHT22;13573;50.936;4.328;2022-10-23T17:28:22;19.30;99.90
25716;DHT22;13573;50.936;4.328;2022-10-23T17:30:49;19.60;99.90
25716;DHT22;13573;50.936;4.328;2022-10-23T17:33:16;19.80;99.90
25716;DHT22;13573;50.936;4.328;2022-10-23T17:35:43;19.60;99.90
25716;DHT22;13573;50.936;4.328;2022-10-23T17:38:12;20.40;99.90
25716;DHT22;13573;50.936;4.328;2022-10-23T17:40:43;19.60;99.90
25716;DHT22;13573;50.936;4.328;2022-10-23T17:43:12;19.90;99.90
25716;DHT22;13573;50.936;4.328;2022-10-23T17:45:39;20.20;99.90
25716;DHT22;13573;50.936;4.328;2022-10-23T17:48:08;19.90;99.90
25716;DHT22;13573;50.936;4.328;2022-10-23T17:50:34;19.50;99.90
25716;DHT22;13573;50.936;4.328;2022-10-23T17:53:01;18.50;99.90
25716;DHT22;13573;50.936;4.328;2022-10-23T17:55:28;18.80;99.90
25716;DHT22;13573;50.936;4.328;2022-10-23T17:57:54;20.00;99.90
25716;DHT22;13573;50.936;4.328;2022-10-23T18:00:21;19.50;99.90
25716;DHT22;13573;50.936;4.328;2022-10-23T18:02:47;19.80;99.90
25716;DHT22;13573;50.936;4.328;2022-10-23T18:05:14;19.50;99.90
25716;DHT22;13573;50.936;4.328;2022-10-23T18:07:41;17.30;99.90
25716;DHT22;13573;50.936;4.328;2022-10-23T18:12:34;15.90;99.90
25716;DHT22;13573;50.936;4.328;2022-10-23T18:15:01;17.00;99.90
25716;DHT22;13573;50.936;4.328;2022-10-23T18:17:28;16.50;99.90
25716;DHT22;13573;50.936;4.328;2022-10-23T18:19:55;16.40;99.90
25716;DHT22;13573;50.936;4.328;2022-10-23T18:22:21;16.60;99.90
25716;DHT22;13573;50.936;4.328;2022-10-23T18:24:48;16.80;99.90
25716;DHT22;13573;50.936;4.328;2022-10-23T18:29:41;16.60;99.90